Time;durP1;ratioP1;P1;durP2;ratioP2;P2;SDS_P1;SDS_P2;PMS_P1;PMS_P2;Temp;Humidity;BMP_temperature;BMP_pressure;BME280_temperature;BME280_humidity;BME280_pressure;Samples;Min_cycle;Max_cycle;Signal;HPM_P1;HPM_P2
2022/04/10 00:46:55;;;;;;;;;;;;;;;;;;;;;
2022/04/10 00:51:39;;;;;;;10.85;1.35;;;3.70;99.90;;;;;;4934509;28;20090;-85
2022/04/10 01:07:13;;;;;;;;;;;;;;;;;;;;;
2022/04/10 01:20:41;;;;;;;;;;;;;;;;;;;;;
2022/04/10 01:24:35;;;;;;;;;;;;;;;;;;;;;
2022/04/10 01:29:10;;;;;;;;;;;;;;;;;;;;;
2022/04/10 01:37:27;;;;;;;;;;;;;;;;;;;;;
2022/04/10 01:53:41;;;;;;;4.05;0.65;;;3.70;99.90;;;;;;5169799;23;20055;-85
2022/04/10 02:22:29;;;;;;;;;;;;;;;;;;;;;
2022/04/10 03:25:01;;;;;;;2.85;0.50;;;2.60;99.90;;;;;;4775131;29;19925;-85
2022/04/10 03:32:09;;;;;;;1.02;0.30;;;2.40;99.90;;;;;;4743515;30;20071;-86
2022/04/10 04:34:21;;;;;;;1.35;0.40;;;3.70;99.90;;;;;;4830837;29;20058;-85
2022/04/10 04:37:48;;;;;;;3.58;0.40;;;3.40;99.90;;;;;;4810740;29;20070;-85
2022/04/10 04:41:11;;;;;;;;;;;;;;;;;;;;;
2022/04/10 04:44:12;;;;;;;1.20;0.32;;;3.30;99.90;;;;;;4763152;29;20050;-85
2022/04/10 04:48:21;;;;;;;3.85;0.50;;;3.30;99.90;;;;;;5022426;23;20143;-87
2022/04/10 04:56:04;;;;;;;;;;;;;;;;;;;;;
2022/04/10 05:28:47;;;;;;;;;;;;;;;;;;;;;
2022/04/10 05:40:53;;;;;;;;;;;;;;;;;;;;;
2022/04/10 06:09:26;;;;;;;5.60;0.68;;;4.20;99.90;;;;;;4891436;29;20137;-86
2022/04/10 06:20:49;;;;;;;4.30;0.80;;;5.10;99.90;;;;;;4904141;29;20559;-86
2022/04/10 06:24:00;;;;;;;5.78;0.70;;;4.20;99.90;;;;;;4867453;29;20095;-86
2022/04/10 06:27:11;;;;;;;5.63;0.80;;;4.20;99.90;;;;;;4866965;29;20057;-87
2022/04/10 06:30:31;;;;;;;4.05;0.60;;;4.30;99.90;;;;;;4868703;29;20060;-87
2022/04/10 07:50:35;;;;;;;;;;;;;;;;;;;;;
2022/04/10 08:20:34;;;;;;;4.90;0.55;;;8.30;99.90;;;;;;4829871;29;20150;-84
2022/04/10 08:23:59;;;;;;;8.05;0.70;;;8.40;99.90;;;;;;4825893;29;20053;-85
2022/04/10 08:27:15;;;;;;;6.25;0.90;;;8.20;99.90;;;;;;4821081;29;20065;-88
2022/04/10 08:33:52;;;;;;;5.50;0.60;;;8.40;99.90;;;;;;4828768;29;20111;-86
2022/04/10 08:36:56;;;;;;;3.45;0.63;;;8.70;99.90;;;;;;4829280;29;20138;-84
2022/04/10 08:39:58;;;;;;;7.55;0.80;;;8.90;99.90;;;;;;4820211;29;20127;-88
2022/04/10 08:42:52;;;;;;;7.55;0.93;;;9.40;99.90;;;;;;4872300;29;20049;-85
2022/04/10 08:45:51;;;;;;;7.47;0.85;;;9.00;99.90;;;;;;4870823;29;20057;-87
2022/04/10 08:48:52;;;;;;;5.72;0.80;;;8.90;99.90;;;;;;4855871;29;20114;-86
2022/04/10 09:08:21;;;;;;;3.60;0.38;;;9.20;99.90;;;;;;4914202;29;20059;-85
2022/04/10 09:11:08;;;;;;;5.75;0.50;;;9.40;99.90;;;;;;4910887;29;20122;-86
2022/04/10 09:13:41;;;;;;;2.85;0.50;;;9.40;99.90;;;;;;4903849;29;20051;-86
2022/04/10 09:16:22;;;;;;;4.40;0.40;;;9.50;99.90;;;;;;4914979;29;20119;-85
2022/04/10 09:19:01;;;;;;;2.92;0.63;;;9.60;99.90;;;;;;4915188;29;20463;-86
2022/04/10 09:21:33;;;;;;;3.55;0.77;;;9.50;99.90;;;;;;4916043;29;20167;-84
2022/04/10 09:24:08;;;;;;;6.32;0.60;;;9.60;99.90;;;;;;4915730;29;20186;-85
2022/04/10 09:27:32;;;;;;;2.17;0.40;;;9.70;99.90;;;;;;4915939;29;20395;-83
2022/04/10 09:30:07;;;;;;;5.68;0.40;;;9.80;99.90;;;;;;4913506;29;20051;-85
2022/04/10 09:33:03;;;;;;;2.63;0.57;;;10.10;99.90;;;;;;4914808;29;20048;-86
2022/04/10 09:35:49;;;;;;;6.32;0.60;;;10.10;99.90;;;;;;4914318;29;20047;-86
2022/04/10 09:38:35;;;;;;;10.90;1.58;;;10.10;99.90;;;;;;4915155;29;20462;-85
2022/04/10 09:41:20;;;;;;;6.20;0.57;;;10.20;99.90;;;;;;4916319;29;20044;-86
2022/04/10 09:43:55;;;;;;;5.63;0.57;;;10.30;99.90;;;;;;4915094;29;20403;-83
2022/04/10 09:46:22;;;;;;;4.97;0.60;;;10.00;99.90;;;;;;4915836;29;20067;-86
2022/04/10 09:49:04;;;;;;;4.80;0.50;;;9.90;99.90;;;;;;4913989;29;20171;-86
2022/04/10 09:52:09;;;;;;;4.97;0.57;;;9.70;99.90;;;;;;4915733;29;20048;-86
2022/04/10 09:54:46;;;;;;;5.05;0.50;;;10.00;99.90;;;;;;4923922;29;20072;-86
2022/04/10 09:57:22;;;;;;;2.80;0.57;;;10.00;99.90;;;;;;4913981;29;20044;-87
2022/04/10 09:59:52;;;;;;;3.47;0.50;;;10.00;99.90;;;;;;4914018;29;20052;-85
2022/04/10 10:02:23;;;;;;;5.70;0.82;;;10.30;99.90;;;;;;4914925;29;20103;-85
2022/04/10 10:05:03;;;;;;;4.30;0.60;;;10.30;99.90;;;;;;4915112;29;20091;-85
2022/04/10 10:11:44;;;;;;;3.10;0.50;;;10.30;99.90;;;;;;4908634;29;20048;-85
2022/04/10 10:14:26;;;;;;;2.17;0.40;;;10.30;99.90;;;;;;4914060;29;20048;-88
2022/04/10 10:17:23;;;;;;;3.50;0.60;;;10.50;99.90;;;;;;4912902;29;20040;-88
2022/04/10 10:20:17;;;;;;;4.78;1.08;;;10.70;99.90;;;;;;4916927;29;20052;-88
2022/04/10 10:23:27;;;;;;;2.42;0.50;;;10.90;99.90;;;;;;4902209;29;20155;-85
2022/04/10 10:26:53;;;;;;;5.80;0.60;;;11.10;99.90;;;;;;4914134;29;20040;-85
2022/04/10 10:33:29;;;;;;;6.40;0.45;;;10.90;99.90;;;;;;4874745;29;20040;-89
2022/04/10 10:36:53;;;;;;;3.33;0.32;;;10.70;99.90;;;;;;4976022;23;20119;-87
2022/04/10 10:40:19;;;;;;;3.10;0.55;;;10.60;99.90;;;;;;4935359;29;20454;-89
2022/04/10 10:54:30;;;;;;;1.85;0.70;;;11.10;99.90;;;;;;4937113;29;21422;-85
2022/04/10 11:05:22;;;;;;;2.83;0.40;;;12.00;96.50;;;;;;4936854;29;20050;-84
2022/04/10 11:11:50;;;;;;;2.08;0.50;;;11.70;98.90;;;;;;4830151;29;20046;-86
2022/04/10 11:15:13;;;;;;;2.53;0.50;;;11.80;99.60;;;;;;4832207;29;20093;-86
2022/04/10 11:17:59;;;;;;;3.40;0.75;;;12.00;98.70;;;;;;4803386;29;20047;-88
2022/04/10 11:21:02;;;;;;;5.45;0.60;;;12.10;97.30;;;;;;4794964;29;20475;-87
2022/04/10 11:24:34;;;;;;;3.83;0.75;;;12.00;99.70;;;;;;4812620;29;20067;-86
2022/04/10 11:27:46;;;;;;;3.72;0.50;;;12.10;99.30;;;;;;4758690;30;20125;-86
2022/04/10 11:31:07;;;;;;;5.38;1.17;;;12.30;99.30;;;;;;4759554;30;20052;-86
2022/04/10 11:37:25;;;;;;;5.65;0.60;;;12.40;96.10;;;;;;4720744;30;20069;-88
2022/04/10 11:40:52;;;;;;;;;;;;;;;;;;;;;
2022/04/10 11:54:35;;;;;;;4.03;0.80;;;12.50;94.70;;;;;;5946531;22;7215642;-84
2022/04/10 11:57:10;;;;;;;3.83;0.55;;;12.80;96.70;;;;;;6160226;23;20368;-83
2022/04/10 11:59:44;;;;;;;2.05;0.47;;;12.70;95.70;;;;;;6135600;23;20021;-81
2022/04/10 12:02:20;;;;;;;2.53;0.40;;;12.80;95.60;;;;;;6135305;23;20021;-83
2022/04/10 12:04:55;;;;;;;2.60;0.43;;;12.40;93.70;;;;;;6135663;23;20017;-83
2022/04/10 12:07:26;;;;;;;4.10;0.70;;;12.50;93.20;;;;;;6156269;23;20065;-83
2022/04/10 12:09:59;;;;;;;5.30;0.70;;;12.80;94.30;;;;;;6135464;23;20063;-83
2022/04/10 12:12:47;;;;;;;2.47;1.15;;;12.60;95.00;;;;;;6135030;23;20057;-83
2022/04/10 12:15:22;;;;;;;3.42;0.32;;;12.40;95.00;;;;;;6159954;23;20022;-83
2022/04/10 12:18:08;;;;;;;8.35;0.63;;;12.40;96.90;;;;;;6160277;23;20017;-83
2022/04/10 12:21:01;;;;;;;4.35;0.43;;;12.70;93.20;;;;;;6160073;23;20022;-83
2022/04/10 12:23:37;;;;;;;5.72;0.50;;;12.90;92.80;;;;;;6135858;23;20419;-83
2022/04/10 12:26:05;;;;;;;7.05;0.93;;;12.70;94.10;;;;;;6160243;23;20105;-83
2022/04/10 12:28:43;;;;;;;2.25;0.50;;;12.90;94.10;;;;;;6135519;23;20028;-84
2022/04/10 12:31:13;;;;;;;2.30;0.40;;;13.50;91.60;;;;;;6160397;23;20021;-85
2022/04/10 12:33:43;;;;;;;2.47;0.90;;;13.10;95.00;;;;;;6199509;23;20024;-85
2022/04/10 12:36:19;;;;;;;3.22;0.25;;;13.50;90.60;;;;;;6252047;23;20012;-85
2022/04/10 12:38:51;;;;;;;6.03;0.43;;;13.50;90.70;;;;;;6226662;23;20024;-85
2022/04/10 12:41:30;;;;;;;4.32;0.50;;;13.30;92.40;;;;;;6252256;22;20016;-85
2022/04/10 12:44:23;;;;;;;0.82;0.25;;;13.40;90.80;;;;;;6226509;23;20442;-85
2022/04/10 12:46:55;;;;;;;5.20;0.40;;;13.60;90.30;;;;;;6252820;22;20027;-85
2022/04/10 12:49:24;;;;;;;2.60;0.40;;;13.60;90.20;;;;;;6226455;23;20345;-86
2022/04/10 12:54:48;;;;;;;3.10;0.35;;;13.70;92.20;;;;;;6189211;23;20395;-85
2022/04/10 12:57:32;;;;;;;1.77;0.30;;;13.60;90.90;;;;;;6159687;23;20025;-84
2022/04/10 13:00:53;;;;;;;3.58;0.30;;;13.70;90.00;;;;;;6184720;23;20103;-88
2022/04/10 13:03:52;;;;;;;3.58;0.60;;;13.30;90.80;;;;;;6123874;23;20123;-84
2022/04/10 13:06:58;;;;;;;1.52;0.40;;;13.40;91.40;;;;;;6122311;23;20036;-86
2022/04/10 13:09:54;;;;;;;3.67;0.60;;;13.60;91.70;;;;;;6123537;23;20540;-89
2022/04/10 13:12:56;;;;;;;4.03;0.47;;;13.50;92.20;;;;;;6118679;23;20453;-85
2022/04/10 13:16:00;;;;;;;2.08;0.40;;;13.20;91.30;;;;;;6099208;23;20021;-85
2022/04/10 13:19:31;;;;;;;;;;;;;;;;;;;;;
2022/04/10 13:22:20;;;;;;;4.22;0.52;;;13.20;92.60;;;;;;6098723;23;20018;-84
2022/04/10 13:25:32;;;;;;;2.13;0.40;;;13.40;91.10;;;;;;6123974;23;20104;-84
2022/04/10 13:28:37;;;;;;;2.67;0.43;;;13.40;90.00;;;;;;6123149;23;20097;-84
2022/04/10 13:31:19;;;;;;;2.58;0.55;;;13.20;90.90;;;;;;6098154;23;20029;-84
2022/04/10 13:34:37;;;;;;;4.55;0.57;;;13.00;93.80;;;;;;6143564;23;20075;-84
2022/04/10 13:37:37;;;;;;;2.47;0.50;;;13.10;94.40;;;;;;6185700;23;20032;-85
2022/04/10 13:40:41;;;;;;;3.38;0.60;;;13.20;91.60;;;;;;6185693;23;20100;-84
2022/04/10 13:43:41;;;;;;;2.67;0.55;;;13.40;91.70;;;;;;6158002;23;20021;-85
2022/04/10 13:46:36;;;;;;;4.57;0.50;;;13.10;91.10;;;;;;6185535;23;20460;-84
2022/04/10 13:49:27;;;;;;;6.32;0.50;;;13.20;91.60;;;;;;6183331;23;20450;-85
2022/04/10 13:52:37;;;;;;;2.22;0.50;;;13.40;90.40;;;;;;6183712;23;20024;-85
2022/04/10 13:55:35;;;;;;;0.55;0.30;;;13.30;91.00;;;;;;6182069;23;20043;-85
2022/04/10 13:58:35;;;;;;;1.95;0.30;;;13.30;91.70;;;;;;6135051;23;20100;-85
2022/04/10 14:01:40;;;;;;;1.48;0.38;;;13.40;91.90;;;;;;6159598;23;20025;-84
2022/04/10 14:04:38;;;;;;;2.47;0.40;;;13.80;91.50;;;;;;6134247;23;20115;-85
2022/04/10 14:07:41;;;;;;;2.42;0.30;;;13.90;88.10;;;;;;6134954;23;20083;-84
2022/04/10 14:10:51;;;;;;;;;;;;;;;;;;;;;
2022/04/10 14:14:00;;;;;;;1.35;0.50;;;13.60;91.60;;;;;;6185207;23;20059;-85
2022/04/10 14:21:07;;;;;;;2.20;0.30;;;13.70;91.20;;;;;;6065259;23;20022;-85
2022/04/10 14:24:07;;;;;;;1.88;0.57;;;13.70;90.70;;;;;;6065143;23;20082;-85
2022/04/10 14:27:08;;;;;;;3.20;0.30;;;14.30;91.10;;;;;;6039933;23;20057;-84
2022/04/10 14:30:10;;;;;;;0.50;0.10;;;13.70;89.90;;;;;;6064906;23;20034;-85
2022/04/10 14:32:56;;;;;;;4.15;0.40;;;13.80;92.50;;;;;;6041108;23;20106;-88
2022/04/10 14:36:08;;;;;;;2.95;1.10;;;14.00;89.20;;;;;;6040798;23;20015;-83
2022/04/10 14:39:25;;;;;;;3.22;0.85;;;14.10;83.50;;;;;;6064878;23;20030;-85
2022/04/10 14:42:12;;;;;;;5.60;0.70;;;13.80;85.60;;;;;;6065044;23;20061;-83
2022/04/10 14:45:05;;;;;;;5.35;0.45;;;13.80;86.40;;;;;;6040504;23;20019;-83
2022/04/10 14:47:39;;;;;;;3.60;0.35;;;13.80;86.30;;;;;;6063662;23;20022;-83
2022/04/10 14:50:45;;;;;;;1.88;0.32;;;13.70;88.40;;;;;;6060818;23;20019;-84
2022/04/10 14:53:29;;;;;;;2.90;0.40;;;13.60;90.70;;;;;;6039815;23;20150;-85
2022/04/10 14:56:22;;;;;;;3.67;0.40;;;13.80;87.60;;;;;;6092832;23;20032;-83
2022/04/10 15:02:57;;;;;;;;;;;;;;;;;;;;;
2022/04/10 15:05:56;;;;;;;0.57;0.30;;;13.60;82.80;;;;;;6093514;23;20110;-83
2022/04/10 15:09:09;;;;;;;2.28;0.25;;;13.30;82.60;;;;;;6092863;23;20058;-84
2022/04/10 15:12:07;;;;;;;3.60;0.77;;;13.10;89.20;;;;;;6091159;23;20015;-85
2022/04/10 15:15:15;;;;;;;1.83;0.30;;;13.10;85.80;;;;;;6067736;23;20387;-85
2022/04/10 15:17:55;;;;;;;2.45;0.40;;;12.70;90.70;;;;;;6090801;23;20026;-84
2022/04/10 15:20:28;;;;;;;2.53;0.35;;;12.80;90.10;;;;;;6093370;23;20055;-84
2022/04/10 15:22:55;;;;;;;1.13;0.25;;;12.50;91.50;;;;;;6068476;23;20101;-84
2022/04/10 15:25:29;;;;;;;2.72;0.38;;;12.20;91.70;;;;;;6063221;23;20086;-84
2022/04/10 15:27:56;;;;;;;2.47;0.30;;;12.70;92.60;;;;;;6045043;23;20070;-84
2022/04/10 15:30:22;;;;;;;3.97;0.75;;;12.60;92.20;;;;;;6069096;23;20050;-84
2022/04/10 15:32:49;;;;;;;1.88;0.47;;;12.60;92.10;;;;;;6067787;23;20393;-84
2022/04/10 15:35:17;;;;;;;3.35;0.40;;;12.40;92.20;;;;;;6069821;23;20377;-84
2022/04/10 15:37:44;;;;;;;1.90;0.32;;;12.50;91.50;;;;;;6068831;23;20349;-85
2022/04/10 15:40:12;;;;;;;4.15;0.40;;;12.10;92.60;;;;;;6150587;23;20021;-83
2022/04/10 15:42:40;;;;;;;2.22;0.50;;;11.80;93.10;;;;;;6184154;23;20444;-85
2022/04/10 15:45:08;;;;;;;8.63;1.55;;;11.60;93.40;;;;;;6184339;23;20017;-84
2022/04/10 15:47:41;;;;;;;2.40;0.40;;;11.60;92.70;;;;;;6153241;23;20024;-86
2022/04/10 15:50:10;;;;;;;3.05;0.55;;;11.40;93.80;;;;;;6184187;23;20257;-84
2022/04/10 15:52:54;;;;;;;3.95;0.32;;;11.40;93.40;;;;;;6157426;23;20397;-85
2022/04/10 15:55:37;;;;;;;3.78;0.55;;;11.00;96.60;;;;;;6128114;23;20104;-85
2022/04/10 15:58:16;;;;;;;1.55;0.50;;;11.00;97.10;;;;;;6129026;23;20332;-85
2022/04/10 16:00:57;;;;;;;3.25;0.52;;;11.00;97.50;;;;;;6154246;23;20014;-85
2022/04/10 16:03:25;;;;;;;3.67;0.52;;;11.00;99.20;;;;;;6153892;23;20028;-84
2022/04/10 16:05:54;;;;;;;2.13;0.57;;;10.80;99.90;;;;;;6104613;23;20018;-85
2022/04/10 16:08:38;;;;;;;2.17;0.40;;;10.80;99.60;;;;;;6128431;23;20097;-85
2022/04/10 16:11:11;;;;;;;3.85;0.40;;;10.90;98.30;;;;;;6127247;23;20017;-84
2022/04/10 16:13:39;;;;;;;1.20;0.38;;;10.80;98.90;;;;;;6128154;23;20059;-85
2022/04/10 16:16:07;;;;;;;2.85;0.60;;;10.50;99.20;;;;;;6128675;23;20340;-85
2022/04/10 16:18:34;;;;;;;2.38;0.63;;;10.40;99.50;;;;;;6127754;23;20496;-85
2022/04/10 16:21:34;;;;;;;2.70;0.55;;;10.30;99.90;;;;;;6128680;23;20022;-90
2022/04/10 16:24:33;;;;;;;3.83;0.50;;;10.20;99.40;;;;;;6073096;23;20026;-84
2022/04/10 16:31:37;;;;;;;1.25;0.50;;;10.20;98.70;;;;;;6156490;23;20159;-83
2022/04/10 16:34:54;;;;;;;;;;;;;;;;;;;;;
2022/04/10 16:38:02;;;;;;;;;;;;;;;;;;;;;
2022/04/10 16:41:18;;;;;;;;;;;;;;;;;;;;;
2022/04/10 16:44:18;;;;;;;2.17;0.35;;;9.60;99.90;;;;;;6126967;23;20425;-84
2022/04/10 16:47:23;;;;;;;;;;;;;;;;;;;;;
2022/04/10 16:50:27;;;;;;;0.82;0.28;;;9.80;99.70;;;;;;6156590;23;20029;-87
2022/04/10 16:53:40;;;;;;;;;;;;;;;;;;;;;
2022/04/10 16:56:32;;;;;;;;;;;;;;;;;;;;;
2022/04/10 16:59:24;;;;;;;1.20;0.30;;;9.50;99.90;;;;;;6129556;23;20096;-84
2022/04/10 17:10:18;;;;;;;3.33;0.40;;;9.30;99.90;;;;;;6155784;23;20036;-83
2022/04/10 17:13:27;;;;;;;1.85;1.15;;;9.20;99.90;;;;;;6126178;23;20057;-83
2022/04/10 17:16:27;;;;;;;2.58;0.40;;;9.10;99.90;;;;;;6129149;23;20067;-85
2022/04/10 17:19:34;;;;;;;4.43;0.60;;;9.10;99.90;;;;;;6127546;23;20026;-85
2022/04/10 17:22:33;;;;;;;2.55;0.40;;;9.10;99.90;;;;;;6008260;23;20034;-85
2022/04/10 17:25:31;;;;;;;0.50;0.30;;;8.90;99.90;;;;;;6007220;23;20022;-84
2022/04/10 17:28:22;;;;;;;;;;;8.70;99.90;;;;;;6008947;23;20155;-84
2022/04/10 17:38:24;;;;;;;2.72;0.30;;;8.50;99.90;;;;;;5985064;23;20503;-84
2022/04/10 17:41:56;;;;;;;2.15;0.45;;;8.50;99.90;;;;;;6002342;23;20024;-85
2022/04/10 17:44:41;;;;;;;2.65;0.40;;;8.40;99.90;;;;;;6008678;23;20027;-85
2022/04/10 17:47:41;;;;;;;;;;;;;;;;;;;;;
2022/04/10 17:50:44;;;;;;;1.80;0.30;;;8.20;99.90;;;;;;6008532;23;20386;-85
2022/04/10 17:53:36;;;;;;;;;;;;;;;;;;;;;
2022/04/10 17:56:26;;;;;;;0.88;0.30;;;8.10;99.90;;;;;;6036726;23;20359;-83
2022/04/10 17:59:26;;;;;;;;;;;;;;;;;;;;;
2022/04/10 18:02:04;;;;;;;1.85;0.40;;;7.90;99.90;;;;;;6123061;23;20132;-83
2022/04/10 18:04:47;;;;;;;1.35;0.20;;;7.80;99.90;;;;;;6123676;23;20172;-85
2022/04/10 18:07:36;;;;;;;1.45;0.30;;;7.70;99.90;;;;;;6121056;23;20076;-85
2022/04/10 18:10:36;;;;;;;1.10;0.38;;;7.60;99.90;;;;;;6097017;23;20093;-85
2022/04/10 18:13:36;;;;;;;1.65;0.40;;;7.50;99.90;;;;;;6120110;23;20441;-84
2022/04/10 18:16:36;;;;;;;1.55;0.40;;;7.40;99.90;;;;;;6121892;23;20018;-83
2022/04/10 18:19:11;;;;;;;1.23;0.35;;;7.30;99.90;;;;;;6121980;23;20029;-85
2022/04/10 18:21:42;;;;;;;1.13;0.40;;;7.20;99.90;;;;;;6121186;23;20018;-86
2022/04/10 18:24:21;;;;;;;1.55;0.65;;;7.20;99.90;;;;;;6122965;23;20528;-86
2022/04/10 18:26:49;;;;;;;1.15;0.50;;;7.10;99.90;;;;;;6122511;23;20054;-83
2022/04/10 18:29:19;;;;;;;3.30;0.50;;;7.00;99.90;;;;;;6122791;23;20167;-85
2022/04/10 18:31:48;;;;;;;2.45;0.57;;;6.90;99.90;;;;;;6123281;23;20021;-85
2022/04/10 18:34:21;;;;;;;2.75;0.77;;;6.80;99.90;;;;;;6122682;23;20021;-83
2022/04/10 18:36:54;;;;;;;4.82;0.88;;;6.70;99.90;;;;;;6099573;23;20018;-84
2022/04/10 18:39:25;;;;;;;4.30;0.77;;;6.70;99.90;;;;;;6122996;23;20061;-85
2022/04/10 18:41:53;;;;;;;2.00;0.77;;;6.70;99.90;;;;;;6103441;23;20450;-83
2022/04/10 18:44:22;;;;;;;2.63;0.70;;;6.50;99.90;;;;;;6184807;23;20028;-84
2022/04/10 18:46:48;;;;;;;1.27;0.60;;;6.50;99.90;;;;;;6183681;23;20072;-83
2022/04/10 18:52:16;;;;;;;1.17;0.70;;;6.30;99.90;;;;;;6184712;23;20103;-83
2022/04/10 18:54:44;;;;;;;1.52;0.60;;;6.20;99.90;;;;;;6184863;23;20028;-85
2022/04/10 18:57:14;;;;;;;1.10;0.70;;;6.20;99.90;;;;;;6184082;23;20021;-86
2022/04/10 18:59:54;;;;;;;1.63;0.55;;;6.00;99.90;;;;;;6185135;23;20024;-85
2022/04/10 19:02:24;;;;;;;3.88;0.50;;;5.90;99.90;;;;;;6184474;23;20757;-85
2022/04/10 19:04:58;;;;;;;0.85;0.50;;;5.70;99.90;;;;;;6182800;23;20083;-85
2022/04/10 19:07:28;;;;;;;1.95;0.43;;;5.60;99.90;;;;;;6185052;23;20024;-86
2022/04/10 19:09:57;;;;;;;3.35;0.68;;;5.40;99.90;;;;;;6184646;23;20017;-86
2022/04/10 19:12:26;;;;;;;0.98;0.50;;;5.40;99.90;;;;;;6183548;23;20091;-86
2022/04/10 19:14:54;;;;;;;1.23;0.40;;;5.30;99.90;;;;;;6182955;23;20013;-86
2022/04/10 19:17:27;;;;;;;1.15;0.50;;;5.30;99.90;;;;;;6182728;23;20017;-87
2022/04/10 19:19:55;;;;;;;0.82;0.50;;;5.20;99.90;;;;;;6183874;23;20455;-85
2022/04/10 19:22:28;;;;;;;0.93;0.50;;;5.10;99.90;;;;;;6184879;23;20021;-85
2022/04/10 19:25:00;;;;;;;0.70;0.40;;;5.10;99.90;;;;;;6182831;23;20120;-86
2022/04/10 19:27:32;;;;;;;1.60;0.60;;;4.90;99.90;;;;;;6183932;23;20021;-83
2022/04/10 19:29:58;;;;;;;3.28;0.60;;;4.90;99.90;;;;;;6182492;23;20074;-86
2022/04/10 19:32:24;;;;;;;1.42;0.40;;;4.80;99.90;;;;;;6184591;23;20031;-91
2022/04/10 19:34:57;;;;;;;0.80;0.50;;;4.80;99.90;;;;;;6184351;23;20048;-88
2022/04/10 19:44:47;;;;;;;1.33;0.50;;;4.50;99.90;;;;;;6181575;23;20463;-88
2022/04/10 19:47:16;;;;;;;0.77;0.30;;;4.40;99.90;;;;;;6182497;23;20096;-87
2022/04/10 19:49:48;;;;;;;0.30;0.30;;;4.30;99.90;;;;;;6182618;23;20056;-86
2022/04/10 19:52:24;;;;;;;2.05;1.20;;;4.20;99.90;;;;;;6184390;23;20017;-87
2022/04/10 19:54:56;;;;;;;0.82;0.50;;;4.10;99.90;;;;;;6181996;23;20032;-86
2022/04/10 19:57:27;;;;;;;1.08;0.40;;;4.10;99.90;;;;;;6183344;23;20048;-86
2022/04/10 19:59:56;;;;;;;4.15;0.40;;;4.00;99.90;;;;;;6183352;23;20452;-87
2022/04/10 20:02:32;;;;;;;2.00;0.52;;;3.90;99.90;;;;;;6182167;23;20448;-87
2022/04/10 20:05:07;;;;;;;3.75;0.60;;;3.90;99.90;;;;;;6156853;23;20017;-87
2022/04/10 20:07:43;;;;;;;;;;;3.80;99.90;;;;;;6185603;23;20023;-87
2022/04/10 20:10:16;;;;;;;4.43;1.05;;;3.80;99.90;;;;;;6186746;23;19916;-87
2022/04/10 20:12:48;;;;;;;0.98;0.50;;;3.80;99.90;;;;;;6186768;23;20340;-87
2022/04/10 20:15:20;;;;;;;1.20;0.40;;;3.50;99.90;;;;;;6185526;23;20024;-87
2022/04/10 20:17:52;;;;;;;1.35;0.47;;;3.60;99.90;;;;;;6186307;23;20048;-86
2022/04/10 20:20:24;;;;;;;1.05;0.40;;;3.70;99.90;;;;;;6183910;23;20049;-88
2022/04/10 20:22:56;;;;;;;0.88;0.40;;;3.60;99.90;;;;;;6182811;23;20021;-87
2022/04/10 20:25:34;;;;;;;1.10;0.38;;;3.60;99.90;;;;;;6184640;23;20071;-86
2022/04/10 20:28:03;;;;;;;2.40;0.40;;;3.60;99.90;;;;;;6185215;23;20436;-86
2022/04/10 20:30:32;;;;;;;2.65;0.43;;;3.50;99.90;;;;;;6157439;23;20028;-87
2022/04/10 20:33:06;;;;;;;0.57;0.38;;;3.40;99.90;;;;;;6184526;23;20024;-85
2022/04/10 20:35:47;;;;;;;2.05;0.55;;;3.40;99.90;;;;;;6184987;23;20052;-87
2022/04/10 20:38:20;;;;;;;4.07;0.40;;;3.30;99.90;;;;;;6186649;23;20028;-86
2022/04/10 20:41:41;;;;;;;1.52;0.50;;;3.20;99.90;;;;;;6185220;23;20017;-84
2022/04/10 21:00:24;;;;;;;1.25;0.40;;;2.90;99.90;;;;;;6184288;23;20108;-91
2022/04/10 21:03:55;;;;;;;1.17;0.68;;;2.90;99.90;;;;;;6185661;23;20059;-90
2022/04/10 21:07:10;;;;;;;;;;;;;;;;;;;;;
2022/04/10 21:13:58;;;;;;;0.85;0.52;;;2.80;99.90;;;;;;6185918;23;20025;-89
2022/04/10 21:17:18;;;;;;;0.80;0.40;;;1.90;99.90;;;;;;6186136;23;20025;-89
2022/04/10 21:20:30;;;;;;;2.15;0.50;;;2.70;99.90;;;;;;6186327;23;20444;-88
2022/04/10 21:23:59;;;;;;;4.95;0.50;;;2.60;99.90;;;;;;6185658;23;20024;-88
2022/04/10 21:31:03;;;;;;;1.85;0.63;;;2.60;99.90;;;;;;6185850;23;20447;-87
2022/04/10 21:33:56;;;;;;;;;;;;;;;;;;;;;
2022/04/10 21:37:09;;;;;;;2.10;0.60;;;2.00;99.90;;;;;;6185479;23;20061;-87
2022/04/10 21:40:42;;;;;;;;;;;;;;;;;;;;;
2022/04/10 21:44:09;;;;;;;1.25;0.68;;;2.40;99.90;;;;;;6185386;23;20420;-87
2022/04/10 21:47:03;;;;;;;1.17;0.65;;;2.30;99.90;;;;;;6159138;23;20025;-86
2022/04/10 21:53:32;;;;;;;2.75;0.60;;;2.20;99.90;;;;;;6185292;23;20143;-86
2022/04/10 21:56:11;;;;;;;1.10;0.50;;;2.20;99.90;;;;;;6182851;23;20024;-87
2022/04/10 21:58:44;;;;;;;3.38;0.60;;;2.30;99.90;;;;;;6150823;23;20075;-89
2022/04/10 22:01:38;;;;;;;2.17;0.50;;;2.10;99.90;;;;;;6179857;23;20055;-89
2022/04/10 22:04:08;;;;;;;5.22;1.10;;;2.10;99.90;;;;;;6182842;23;20017;-84
2022/04/10 22:06:36;;;;;;;3.67;0.60;;;2.10;99.90;;;;;;6183924;23;20025;-86
2022/04/10 22:09:03;;;;;;;1.85;0.70;;;2.00;99.90;;;;;;6183840;23;20028;-86
2022/04/10 22:11:33;;;;;;;2.17;0.60;;;2.00;99.90;;;;;;6158541;23;20021;-87
2022/04/10 22:17:50;;;;;;;2.55;0.63;;;1.30;99.90;;;;;;6183046;23;20091;-86
2022/04/10 22:20:23;;;;;;;1.60;0.65;;;2.00;99.90;;;;;;6185731;23;20024;-86
2022/04/10 22:22:52;;;;;;;2.30;0.50;;;2.00;99.90;;;;;;6185447;23;20336;-86
2022/04/10 22:25:21;;;;;;;0.47;0.40;;;2.00;99.90;;;;;;6185145;23;20017;-88
2022/04/10 22:27:54;;;;;;;3.00;0.70;;;2.00;99.90;;;;;;6185392;23;20347;-86
2022/04/10 22:30:29;;;;;;;1.02;0.40;;;1.90;99.90;;;;;;6183391;23;20017;-86
2022/04/10 22:33:00;;;;;;;1.23;0.50;;;2.00;99.90;;;;;;6185003;23;20036;-86
2022/04/10 22:39:11;;;;;;;4.82;1.25;;;2.10;99.90;;;;;;6183746;23;20458;-85
2022/04/10 22:41:52;;;;;;;3.35;1.13;;;2.00;99.90;;;;;;6185144;23;20095;-87
2022/04/10 22:44:28;;;;;;;2.22;0.90;;;2.00;99.90;;;;;;6184116;23;20024;-85
2022/04/10 22:47:09;;;;;;;1.77;1.25;;;1.90;99.90;;;;;;6185681;23;20415;-84
2022/04/10 22:49:40;;;;;;;0.85;0.60;;;1.90;99.90;;;;;;6183693;23;20491;-83
2022/04/10 22:52:07;;;;;;;2.20;0.68;;;1.90;99.90;;;;;;6186674;23;20013;-86
2022/04/10 22:54:34;;;;;;;1.10;0.43;;;1.90;99.90;;;;;;6185461;23;20021;-83
2022/04/10 22:57:13;;;;;;;3.47;0.68;;;2.00;99.90;;;;;;6183839;23;20019;-86
2022/04/10 23:00:56;;;;;;;;;;;;;;;;;;;;;
2022/04/10 23:04:20;;;;;;;;;;;;;;;;;;;;;
2022/04/10 23:07:43;;;;;;;1.88;0.70;;;2.00;99.90;;;;;;6067891;23;20023;-85
2022/04/10 23:10:57;;;;;;;0.93;0.50;;;1.90;99.90;;;;;;6093825;23;20034;-84
2022/04/10 23:14:24;;;;;;;;;;;;;;;;;;;;;
2022/04/10 23:20:57;;;;;;;1.05;0.60;;;1.90;99.90;;;;;;6093778;23;20042;-84
2022/04/10 23:24:09;;;;;;;1.85;0.70;;;1.90;99.90;;;;;;6093865;23;20033;-84
2022/04/10 23:27:32;;;;;;;2.67;0.80;;;1.80;99.90;;;;;;6093970;23;20049;-85
2022/04/10 23:30:44;;;;;;;;;;;;;;;;;;;;;
2022/04/10 23:34:11;;;;;;;;;;;;;;;;;;;;;
2022/04/10 23:37:29;;;;;;;;;;;;;;;;;;;;;
2022/04/10 23:44:42;;;;;;;2.20;0.77;;;1.70;99.90;;;;;;6153403;23;20075;-88
2022/04/10 23:47:44;;;;;;;2.40;0.73;;;1.60;99.90;;;;;;6103318;23;20021;-87
2022/04/10 23:51:08;;;;;;;;;;;;;;;;;;;;;
2022/04/10 23:54:18;;;;;;;1.23;0.68;;;1.60;99.90;;;;;;6083515;23;20349;-85
2022/04/10 23:57:45;;;;;;;1.77;0.68;;;1.60;99.90;;;;;;6152475;23;20025;-85
